Time;durP1;ratioP1;P1;durP2;ratioP2;P2;SDS_P1;SDS_P2;PMS_P1;PMS_P2;Temp;Humidity;BMP_temperature;BMP_pressure;BME280_temperature;BME280_humidity;BME280_pressure;Samples;Min_cycle;Max_cycle;Signal;HPM_P1;HPM_P2
2022/07/22 00:01:07;;;;;;;5.50;4.23;;;25.00;99.90;;;;;;5082929;28;20454;-80
2022/07/22 00:03:35;;;;;;;4.33;3.90;;;25.00;99.90;;;;;;5081297;28;20940;-80
2022/07/22 00:06:03;;;;;;;4.93;4.53;;;25.00;99.90;;;;;;5083956;28;20511;-79
2022/07/22 00:08:32;;;;;;;5.20;4.27;;;25.00;99.90;;;;;;5085998;28;20457;-79
2022/07/22 00:11:00;;;;;;;5.10;4.70;;;25.00;99.90;;;;;;5084868;28;20446;-79
2022/07/22 00:13:28;;;;;;;4.47;4.07;;;24.90;99.90;;;;;;5078856;28;20487;-79
2022/07/22 00:15:57;;;;;;;5.03;4.60;;;24.90;99.90;;;;;;5083148;28;20476;-79
2022/07/22 00:18:27;;;;;;;4.57;4.03;;;24.90;99.90;;;;;;5082092;28;22451;-79
2022/07/22 00:20:55;;;;;;;5.47;4.70;;;24.90;99.90;;;;;;5079036;28;20450;-80
2022/07/22 00:23:23;;;;;;;5.47;4.03;;;24.80;99.90;;;;;;5082226;28;20519;-80
2022/07/22 00:25:54;;;;;;;5.23;4.00;;;24.80;99.90;;;;;;5083943;28;20458;-80
2022/07/22 00:28:22;;;;;;;4.90;3.93;;;24.80;99.90;;;;;;5083213;28;20457;-80
2022/07/22 00:30:50;;;;;;;5.20;4.43;;;24.80;99.90;;;;;;5081029;28;20467;-79
2022/07/22 00:33:21;;;;;;;4.93;4.47;;;24.80;99.90;;;;;;5081448;28;20569;-79
2022/07/22 00:35:51;;;;;;;4.77;4.33;;;24.80;99.90;;;;;;5079457;28;20506;-80
2022/07/22 00:38:19;;;;;;;6.77;4.97;;;24.80;99.90;;;;;;5083148;28;20465;-80
2022/07/22 00:40:47;;;;;;;5.13;4.70;;;24.70;99.90;;;;;;5084301;28;20977;-79
2022/07/22 00:43:15;;;;;;;7.40;4.20;;;24.60;99.90;;;;;;5082504;28;20446;-80
2022/07/22 00:45:43;;;;;;;4.67;4.27;;;24.60;99.90;;;;;;5081816;28;20473;-80
2022/07/22 00:48:12;;;;;;;4.53;4.13;;;24.60;99.90;;;;;;5082871;28;20465;-81
2022/07/22 00:50:41;;;;;;;4.27;3.87;;;24.60;99.90;;;;;;5085099;28;20464;-81
2022/07/22 00:53:11;;;;;;;5.07;3.90;;;24.50;99.90;;;;;;5087979;28;21301;-81
2022/07/22 00:55:39;;;;;;;5.23;4.83;;;24.50;99.90;;;;;;5085674;28;20477;-79
2022/07/22 00:58:07;;;;;;;5.30;4.80;;;24.50;99.90;;;;;;5090515;28;20491;-80
2022/07/22 01:00:36;;;;;;;4.80;4.40;;;24.50;99.90;;;;;;5087622;28;20838;-79
2022/07/22 01:03:05;;;;;;;5.13;3.93;;;24.40;99.90;;;;;;5087491;28;20484;-77
2022/07/22 01:05:33;;;;;;;4.07;3.67;;;24.50;99.90;;;;;;5087417;28;20484;-78
2022/07/22 01:08:01;;;;;;;5.97;5.40;;;24.50;99.90;;;;;;5089685;28;21028;-78
2022/07/22 01:10:30;;;;;;;4.57;4.20;;;24.50;99.90;;;;;;5088940;28;20445;-78
2022/07/22 01:12:59;;;;;;;6.40;4.13;;;24.50;99.90;;;;;;5094615;28;20464;-78
2022/07/22 01:15:27;;;;;;;4.40;4.00;;;24.40;99.90;;;;;;5088539;28;20482;-78
2022/07/22 01:17:55;;;;;;;4.80;4.37;;;24.40;99.90;;;;;;5090305;28;21119;-80
2022/07/22 01:20:25;;;;;;;5.90;5.30;;;24.40;99.90;;;;;;5099642;27;20457;-78
2022/07/22 01:22:54;;;;;;;4.27;3.97;;;24.30;99.90;;;;;;5088376;28;20475;-79
2022/07/22 01:25:22;;;;;;;5.63;5.13;;;24.30;99.90;;;;;;5089685;28;20461;-79
2022/07/22 01:27:50;;;;;;;5.83;5.33;;;24.30;99.90;;;;;;5089015;28;20461;-79
2022/07/22 01:30:18;;;;;;;5.27;4.77;;;24.30;99.90;;;;;;5088031;28;20872;-78
2022/07/22 01:32:46;;;;;;;4.73;4.40;;;24.20;99.90;;;;;;5087538;28;20848;-78
2022/07/22 01:35:14;;;;;;;5.13;4.83;;;24.10;99.90;;;;;;5090101;28;20508;-78
2022/07/22 01:37:44;;;;;;;5.60;5.10;;;24.20;99.90;;;;;;5085525;28;20458;-79
2022/07/22 01:40:13;;;;;;;5.33;4.93;;;24.20;99.90;;;;;;5088609;28;20464;-79
2022/07/22 01:42:42;;;;;;;5.20;4.37;;;24.10;99.90;;;;;;5088002;28;20464;-78
2022/07/22 01:45:11;;;;;;;6.17;5.67;;;24.10;99.90;;;;;;5088213;28;20457;-78
2022/07/22 01:47:39;;;;;;;5.00;4.60;;;24.00;99.90;;;;;;5087024;28;21314;-78
2022/07/22 01:50:11;;;;;;;5.80;5.27;;;24.10;99.90;;;;;;5086394;28;20457;-80
2022/07/22 01:52:40;;;;;;;4.77;4.37;;;24.00;99.90;;;;;;5087021;28;20457;-78
2022/07/22 01:55:11;;;;;;;4.87;4.20;;;24.00;99.90;;;;;;5089474;28;20503;-78
2022/07/22 01:57:39;;;;;;;5.07;4.63;;;24.00;99.90;;;;;;5085877;28;21084;-78
2022/07/22 02:00:10;;;;;;;6.93;4.90;;;24.00;99.90;;;;;;5086691;28;20461;-78
2022/07/22 02:02:39;;;;;;;5.60;4.37;;;24.00;99.90;;;;;;5084980;28;20498;-78
2022/07/22 02:05:07;;;;;;;4.83;4.43;;;24.00;99.90;;;;;;5084333;28;20460;-78
2022/07/22 02:07:35;;;;;;;4.97;4.57;;;24.00;99.90;;;;;;5079029;28;20503;-78
2022/07/22 02:10:05;;;;;;;5.10;4.70;;;24.00;99.90;;;;;;5085369;28;20515;-79
2022/07/22 02:12:35;;;;;;;4.53;4.23;;;23.90;99.90;;;;;;5083937;28;20461;-78
2022/07/22 02:15:03;;;;;;;5.27;4.87;;;23.90;99.90;;;;;;5081244;28;20473;-79
2022/07/22 02:17:31;;;;;;;5.20;4.90;;;23.90;99.90;;;;;;5083639;28;21075;-78
2022/07/22 02:19:59;;;;;;;4.77;4.37;;;23.80;99.90;;;;;;5085370;28;20446;-78
2022/07/22 02:22:28;;;;;;;5.27;4.77;;;23.80;99.90;;;;;;5085099;28;20452;-78
2022/07/22 02:24:56;;;;;;;4.90;4.50;;;23.80;99.90;;;;;;5082842;28;20526;-78
2022/07/22 02:27:24;;;;;;;5.10;4.70;;;23.80;99.90;;;;;;5082780;28;20475;-79
2022/07/22 02:29:53;;;;;;;6.43;4.70;;;23.80;99.90;;;;;;5082106;28;20749;-78
2022/07/22 02:32:22;;;;;;;4.57;4.23;;;23.70;99.90;;;;;;5083877;28;21007;-79
2022/07/22 02:34:50;;;;;;;5.10;4.60;;;23.70;99.90;;;;;;5082227;28;20540;-78
2022/07/22 02:37:19;;;;;;;5.33;3.93;;;23.70;99.90;;;;;;5083022;28;20456;-78
2022/07/22 02:39:47;;;;;;;5.90;4.83;;;23.70;99.90;;;;;;5083840;28;20449;-78
2022/07/22 02:42:15;;;;;;;6.80;4.83;;;23.70;99.90;;;;;;5078819;28;20449;-79
2022/07/22 02:44:44;;;;;;;5.23;4.73;;;23.70;99.90;;;;;;5076905;28;20572;-79
2022/07/22 02:47:13;;;;;;;4.40;4.10;;;23.60;99.90;;;;;;5083182;28;20534;-78
2022/07/22 02:49:41;;;;;;;4.77;4.37;;;23.60;99.90;;;;;;5081517;28;20457;-78
2022/07/22 02:52:09;;;;;;;5.30;4.80;;;23.60;99.90;;;;;;5083111;28;20448;-77
2022/07/22 02:54:38;;;;;;;5.03;4.63;;;23.60;99.90;;;;;;5084274;28;20485;-78
2022/07/22 02:57:06;;;;;;;5.20;4.80;;;23.60;99.90;;;;;;5083780;28;20485;-78
2022/07/22 02:59:34;;;;;;;5.23;4.73;;;23.60;99.90;;;;;;5082457;28;20464;-78
2022/07/22 03:02:02;;;;;;;6.20;5.60;;;23.50;99.90;;;;;;5084098;28;20462;-78
2022/07/22 03:04:31;;;;;;;5.17;4.67;;;23.50;99.90;;;;;;5082731;28;20473;-78
2022/07/22 03:07:00;;;;;;;5.73;4.70;;;23.50;99.90;;;;;;5083014;28;20476;-77
2022/07/22 03:09:28;;;;;;;5.23;4.83;;;23.50;99.90;;;;;;5082875;28;20468;-79
2022/07/22 03:11:56;;;;;;;5.67;4.47;;;23.50;99.90;;;;;;5084736;28;20460;-78
2022/07/22 03:14:24;;;;;;;5.63;5.17;;;23.40;99.90;;;;;;5083997;28;20982;-79
2022/07/22 03:16:52;;;;;;;5.27;4.77;;;23.40;99.90;;;;;;5082125;28;20528;-77
2022/07/22 03:19:20;;;;;;;5.87;4.97;;;23.40;99.90;;;;;;5086625;28;20513;-77
2022/07/22 03:21:50;;;;;;;5.00;4.60;;;23.40;99.90;;;;;;5079578;28;20466;-77
2022/07/22 03:24:18;;;;;;;5.00;4.60;;;23.40;99.90;;;;;;5085503;28;20453;-77
2022/07/22 03:26:47;;;;;;;5.50;5.00;;;23.40;99.90;;;;;;5085598;28;20550;-79
2022/07/22 03:29:15;;;;;;;5.87;5.17;;;23.40;99.90;;;;;;5078315;28;20967;-78
2022/07/22 03:31:43;;;;;;;4.63;4.10;;;23.40;99.90;;;;;;5082299;28;20463;-78
2022/07/22 03:34:11;;;;;;;5.03;4.33;;;23.30;99.90;;;;;;5084838;28;20470;-78
2022/07/22 03:36:39;;;;;;;5.50;5.10;;;23.30;99.90;;;;;;5083189;28;20987;-77
2022/07/22 03:39:09;;;;;;;5.30;4.73;;;23.30;99.90;;;;;;5084113;28;20523;-78
2022/07/22 03:41:37;;;;;;;5.57;5.07;;;23.20;99.90;;;;;;5081512;28;20510;-79
2022/07/22 03:44:05;;;;;;;6.00;4.93;;;23.20;99.90;;;;;;5085128;28;20454;-79
2022/07/22 03:46:33;;;;;;;5.47;4.97;;;23.20;99.90;;;;;;5082138;28;20579;-79
2022/07/22 03:49:01;;;;;;;5.63;4.97;;;23.20;99.90;;;;;;5085084;28;20453;-79
2022/07/22 03:51:30;;;;;;;5.20;4.70;;;23.20;99.90;;;;;;5082991;28;20468;-78
2022/07/22 03:54:02;;;;;;;5.47;5.03;;;23.10;99.90;;;;;;5081596;28;21024;-79
2022/07/22 03:56:31;;;;;;;5.23;4.47;;;23.10;99.90;;;;;;5080517;28;20586;-79
2022/07/22 03:58:59;;;;;;;5.23;4.83;;;23.10;99.90;;;;;;5081605;28;20473;-79
2022/07/22 04:01:28;;;;;;;5.83;5.33;;;23.10;99.90;;;;;;5077092;28;20481;-78
2022/07/22 04:03:56;;;;;;;6.97;6.33;;;23.10;99.90;;;;;;5082008;28;20476;-78
2022/07/22 04:06:31;;;;;;;5.33;4.77;;;23.10;99.90;;;;;;5079328;28;20463;-80
2022/07/22 04:08:59;;;;;;;6.03;5.53;;;23.10;99.90;;;;;;5080297;28;20478;-80
2022/07/22 04:11:28;;;;;;;4.97;4.57;;;23.10;99.90;;;;;;5085338;28;21147;-79
2022/07/22 04:13:58;;;;;;;4.90;4.50;;;23.10;99.90;;;;;;5085844;28;20456;-79
2022/07/22 04:16:26;;;;;;;4.93;4.63;;;23.10;99.90;;;;;;5079850;28;20527;-79
2022/07/22 04:18:54;;;;;;;5.60;5.17;;;23.10;99.90;;;;;;5077268;28;20448;-79
2022/07/22 04:21:23;;;;;;;5.70;5.20;;;23.10;99.90;;;;;;5080186;28;21154;-78
2022/07/22 04:23:51;;;;;;;5.80;5.17;;;23.10;99.90;;;;;;5080840;28;20457;-78
2022/07/22 04:26:23;;;;;;;5.43;4.70;;;23.10;99.90;;;;;;5078491;28;20475;-79
2022/07/22 04:28:52;;;;;;;6.53;5.97;;;23.10;99.90;;;;;;5080671;28;20535;-77
2022/07/22 04:31:22;;;;;;;6.37;5.67;;;23.10;99.90;;;;;;5080014;28;20452;-78
2022/07/22 04:33:51;;;;;;;6.23;5.80;;;23.10;99.90;;;;;;5081857;28;21462;-79
2022/07/22 04:36:20;;;;;;;5.97;5.47;;;23.00;99.90;;;;;;5074382;28;20530;-79
2022/07/22 04:38:48;;;;;;;6.20;5.60;;;22.70;99.90;;;;;;5083201;28;20878;-78
2022/07/22 04:41:16;;;;;;;5.37;4.87;;;22.50;99.90;;;;;;5078363;28;20454;-79
2022/07/22 04:43:48;;;;;;;11.90;5.40;;;22.40;99.90;;;;;;5078429;28;20540;-78
2022/07/22 04:46:16;;;;;;;6.17;5.50;;;22.40;99.90;;;;;;5078452;28;20458;-78
2022/07/22 04:48:45;;;;;;;6.23;5.60;;;22.50;99.90;;;;;;5081504;28;20457;-78
2022/07/22 04:51:14;;;;;;;5.37;4.97;;;22.50;99.90;;;;;;5077335;28;20663;-76
2022/07/22 04:53:42;;;;;;;4.93;4.30;;;22.40;99.90;;;;;;5077953;28;20442;-76
2022/07/22 04:56:14;;;;;;;5.13;4.63;;;22.40;99.90;;;;;;5075598;28;20505;-77
2022/07/22 04:58:42;;;;;;;5.33;4.93;;;22.50;99.90;;;;;;5082178;28;20490;-77
2022/07/22 05:01:11;;;;;;;5.90;5.40;;;22.50;99.90;;;;;;5076558;28;20460;-77
2022/07/22 05:03:39;;;;;;;7.73;6.23;;;22.50;99.90;;;;;;5082616;28;20978;-78
2022/07/22 05:06:09;;;;;;;5.27;4.77;;;22.50;99.90;;;;;;5082833;28;20464;-78
2022/07/22 05:08:38;;;;;;;7.30;6.60;;;22.70;99.90;;;;;;5088138;28;20449;-78
2022/07/22 05:11:06;;;;;;;8.83;6.03;;;22.70;99.90;;;;;;5089565;28;20453;-78
2022/07/22 05:13:34;;;;;;;6.20;5.70;;;22.90;99.90;;;;;;5081139;28;20462;-78
2022/07/22 05:16:03;;;;;;;5.60;5.20;;;22.90;99.90;;;;;;5083469;28;20481;-77
2022/07/22 05:18:31;;;;;;;8.83;5.83;;;22.80;99.90;;;;;;5081054;28;20452;-77
2022/07/22 05:20:59;;;;;;;6.90;6.20;;;22.90;99.90;;;;;;5078610;28;20479;-77
2022/07/22 05:23:29;;;;;;;7.10;6.50;;;22.80;99.90;;;;;;5083636;28;20457;-79
2022/07/22 05:25:57;;;;;;;8.90;6.90;;;22.90;99.90;;;;;;5080969;28;20529;-78
2022/07/22 05:28:25;;;;;;;7.87;7.13;;;23.10;99.90;;;;;;5082470;28;20457;-78
2022/07/22 05:30:53;;;;;;;9.27;6.90;;;23.20;99.90;;;;;;5083652;28;20479;-81
2022/07/22 05:33:21;;;;;;;6.83;6.23;;;23.20;99.90;;;;;;5088406;28;20517;-79
2022/07/22 05:35:50;;;;;;;8.77;6.97;;;23.20;99.90;;;;;;5088052;28;20481;-80
2022/07/22 05:38:18;;;;;;;7.83;7.07;;;23.30;99.90;;;;;;5088005;28;20465;-80
2022/07/22 05:40:47;;;;;;;7.83;7.13;;;23.30;99.90;;;;;;5085548;28;20471;-80
2022/07/22 05:43:15;;;;;;;10.57;6.37;;;23.30;99.90;;;;;;5092320;28;20465;-79
2022/07/22 05:45:43;;;;;;;6.80;6.10;;;23.40;99.90;;;;;;5084901;28;20562;-78
2022/07/22 05:48:12;;;;;;;7.30;6.60;;;23.40;99.90;;;;;;5089532;28;20460;-79
2022/07/22 05:50:40;;;;;;;6.60;5.90;;;23.40;99.90;;;;;;5090230;28;20522;-79
2022/07/22 05:53:08;;;;;;;7.70;6.30;;;23.40;99.90;;;;;;5079694;28;20780;-77
2022/07/22 05:55:36;;;;;;;7.20;6.70;;;23.50;99.90;;;;;;5080521;28;20488;-78
2022/07/22 05:58:05;;;;;;;6.77;5.57;;;23.50;99.90;;;;;;5087243;28;20474;-79
2022/07/22 06:00:34;;;;;;;6.53;5.93;;;23.50;99.90;;;;;;5084557;28;20457;-79
2022/07/22 06:03:02;;;;;;;6.97;6.27;;;23.60;99.90;;;;;;5085540;28;20456;-78
2022/07/22 06:05:30;;;;;;;6.60;6.03;;;23.60;99.90;;;;;;5087500;28;21077;-81
2022/07/22 06:08:05;;;;;;;8.13;6.63;;;23.60;99.90;;;;;;5091703;28;20452;-78
2022/07/22 06:10:34;;;;;;;6.53;6.03;;;23.60;99.90;;;;;;5091796;28;20506;-80
2022/07/22 06:13:02;;;;;;;7.20;6.50;;;23.60;99.90;;;;;;5079943;28;20450;-79
2022/07/22 06:15:32;;;;;;;7.30;6.27;;;23.70;99.90;;;;;;5079782;28;20474;-79
2022/07/22 06:18:00;;;;;;;6.27;5.73;;;23.70;99.90;;;;;;5084799;28;21292;-79
2022/07/22 06:20:28;;;;;;;7.50;6.10;;;23.80;99.90;;;;;;5084505;28;20504;-78
2022/07/22 06:22:56;;;;;;;6.87;6.17;;;23.90;99.90;;;;;;5087049;28;20453;-78
2022/07/22 06:25:25;;;;;;;6.77;6.10;;;23.90;99.90;;;;;;5083611;28;20649;-78
2022/07/22 06:28:11;;;;;;;7.00;6.30;;;23.90;99.90;;;;;;5086112;28;20545;-80
2022/07/22 06:30:40;;;;;;;6.37;5.77;;;24.00;99.90;;;;;;5086132;28;20511;-79
2022/07/22 06:33:09;;;;;;;7.30;5.90;;;24.40;99.90;;;;;;5085198;28;20520;-78
2022/07/22 06:35:40;;;;;;;7.00;6.40;;;24.00;99.90;;;;;;5082800;28;20476;-79
2022/07/22 06:38:09;;;;;;;5.50;5.00;;;24.00;99.90;;;;;;5076071;28;20478;-83
2022/07/22 06:40:56;;;;;;;6.70;6.10;;;24.10;99.90;;;;;;5082623;28;20960;-78
2022/07/22 06:43:24;;;;;;;6.70;5.80;;;24.10;99.90;;;;;;5084292;28;20545;-79
2022/07/22 06:45:53;;;;;;;6.57;5.97;;;24.20;99.90;;;;;;5080464;28;20481;-78
2022/07/22 06:48:22;;;;;;;6.93;5.90;;;24.30;99.90;;;;;;5081502;28;20475;-78
2022/07/22 06:50:50;;;;;;;6.30;5.40;;;24.30;99.90;;;;;;5076220;28;20493;-78
2022/07/22 06:53:21;;;;;;;5.60;5.20;;;24.30;99.90;;;;;;5077597;28;20546;-77
2022/07/22 06:55:49;;;;;;;6.30;5.80;;;24.40;99.90;;;;;;5080216;28;20475;-81
2022/07/22 06:58:17;;;;;;;8.40;4.40;;;24.50;99.90;;;;;;5079676;28;20573;-78
2022/07/22 07:00:45;;;;;;;6.50;5.90;;;24.60;99.90;;;;;;5076392;28;20454;-78
2022/07/22 07:03:15;;;;;;;13.70;6.07;;;24.70;99.90;;;;;;5081194;28;20485;-78
2022/07/22 07:06:02;;;;;;;5.80;5.30;;;24.90;99.90;;;;;;5079782;28;20474;-80
2022/07/22 07:08:31;;;;;;;5.57;5.07;;;25.00;99.90;;;;;;5077479;28;20453;-79
2022/07/22 07:10:59;;;;;;;6.03;5.43;;;25.10;99.90;;;;;;5080487;28;20445;-81
2022/07/22 07:13:27;;;;;;;6.70;6.10;;;25.20;99.90;;;;;;5081514;28;20789;-78
2022/07/22 07:15:55;;;;;;;6.53;5.90;;;25.20;99.90;;;;;;5081036;28;20984;-78
2022/07/22 07:18:25;;;;;;;6.53;5.93;;;25.30;99.90;;;;;;5083843;28;20477;-79
2022/07/22 07:20:55;;;;;;;5.03;4.60;;;25.30;99.90;;;;;;5083484;28;20450;-78
2022/07/22 07:23:24;;;;;;;6.23;5.73;;;25.40;99.90;;;;;;5086387;28;20454;-81
2022/07/22 07:25:52;;;;;;;5.90;5.50;;;25.40;99.90;;;;;;5082081;28;20477;-80
2022/07/22 07:28:21;;;;;;;6.03;5.47;;;25.50;99.90;;;;;;5085399;28;20449;-80
2022/07/22 07:30:51;;;;;;;6.27;5.77;;;25.50;99.90;;;;;;5079532;28;20541;-78
2022/07/22 07:33:19;;;;;;;6.50;6.00;;;25.60;99.90;;;;;;5084698;28;20476;-81
2022/07/22 07:35:48;;;;;;;5.57;5.10;;;25.60;99.90;;;;;;5080137;28;20470;-80
2022/07/22 07:38:17;;;;;;;9.03;7.83;;;25.60;99.90;;;;;;5079420;28;20487;-79
2022/07/22 07:40:45;;;;;;;6.37;5.77;;;25.70;99.90;;;;;;5083252;28;20476;-79
2022/07/22 07:43:13;;;;;;;6.93;5.83;;;25.60;99.90;;;;;;5082674;28;20442;-78
2022/07/22 07:45:41;;;;;;;7.50;6.70;;;25.70;99.90;;;;;;5082534;28;20497;-78
2022/07/22 07:48:10;;;;;;;7.20;6.60;;;25.70;99.90;;;;;;5082383;28;20475;-80
2022/07/22 07:50:39;;;;;;;6.77;6.17;;;25.70;99.90;;;;;;5084474;28;20972;-81
2022/07/22 07:53:08;;;;;;;6.67;6.07;;;25.70;99.90;;;;;;5082649;28;20529;-79
2022/07/22 07:55:38;;;;;;;6.50;5.90;;;25.70;99.90;;;;;;5078579;28;20822;-79
2022/07/22 07:58:06;;;;;;;5.83;5.43;;;25.70;99.90;;;;;;5083042;28;20501;-79
2022/07/22 08:00:36;;;;;;;7.30;6.57;;;25.70;99.90;;;;;;5079121;28;20790;-80
2022/07/22 08:03:05;;;;;;;5.47;5.07;;;25.80;99.90;;;;;;5080235;28;20971;-78
2022/07/22 08:05:34;;;;;;;6.43;5.93;;;25.90;99.90;;;;;;5084303;28;20499;-80
2022/07/22 08:08:03;;;;;;;6.67;6.07;;;25.90;99.90;;;;;;5088746;28;20441;-80
2022/07/22 08:10:39;;;;;;;6.17;5.67;;;25.90;99.90;;;;;;5085408;28;20538;-78
2022/07/22 08:13:27;;;;;;;6.00;5.50;;;25.90;99.90;;;;;;5082169;28;21310;-79
2022/07/22 08:15:57;;;;;;;6.90;5.80;;;26.00;99.90;;;;;;5076407;28;20565;-80
2022/07/22 08:18:26;;;;;;;6.20;5.63;;;26.00;99.90;;;;;;5072130;28;20472;-80
2022/07/22 08:20:55;;;;;;;5.70;5.27;;;26.10;99.90;;;;;;5076592;28;20501;-80
2022/07/22 08:23:23;;;;;;;6.23;5.63;;;26.10;99.90;;;;;;5081272;28;20565;-80
2022/07/22 08:25:55;;;;;;;5.53;5.03;;;26.20;99.90;;;;;;5082331;28;20569;-81
2022/07/22 08:28:23;;;;;;;5.50;5.00;;;26.20;99.90;;;;;;5082877;28;20465;-80
2022/07/22 08:30:52;;;;;;;5.60;5.20;;;26.20;99.90;;;;;;5087675;28;20465;-80
2022/07/22 08:33:20;;;;;;;5.90;5.40;;;26.20;99.90;;;;;;5088973;28;20465;-80
2022/07/22 08:35:48;;;;;;;5.50;5.10;;;26.20;99.90;;;;;;5088225;28;20466;-80
2022/07/22 08:38:16;;;;;;;5.60;5.10;;;26.30;99.90;;;;;;5090164;28;20969;-80
2022/07/22 08:40:45;;;;;;;6.43;5.40;;;26.30;99.90;;;;;;5089738;28;20511;-81
2022/07/22 08:43:15;;;;;;;6.40;5.80;;;26.40;99.90;;;;;;5084917;28;20442;-80
2022/07/22 08:45:43;;;;;;;5.90;5.30;;;26.40;99.90;;;;;;5076227;28;20517;-80
2022/07/22 08:48:12;;;;;;;5.90;5.20;;;26.40;99.90;;;;;;5089741;28;20506;-80
2022/07/22 08:50:40;;;;;;;7.03;6.30;;;26.40;99.90;;;;;;5080286;28;20442;-80
2022/07/22 08:53:11;;;;;;;4.90;4.50;;;26.40;99.90;;;;;;5089682;28;20457;-81
2022/07/22 08:55:43;;;;;;;5.67;5.27;;;26.50;99.90;;;;;;5086782;28;20477;-79
2022/07/22 08:58:11;;;;;;;5.10;4.70;;;26.50;99.90;;;;;;5081693;28;20940;-80
2022/07/22 09:00:41;;;;;;;5.00;4.20;;;26.60;99.90;;;;;;5086342;28;20468;-80
2022/07/22 09:03:21;;;;;;;5.50;5.00;;;26.50;99.90;;;;;;5082286;28;20453;-83
2022/07/22 09:05:51;;;;;;;4.80;4.50;;;26.60;99.90;;;;;;5080817;28;20501;-80
2022/07/22 09:08:19;;;;;;;4.93;4.43;;;26.60;99.90;;;;;;5089622;28;20460;-81
2022/07/22 09:10:48;;;;;;;4.47;4.17;;;26.70;99.90;;;;;;5078897;28;20464;-81
2022/07/22 09:13:18;;;;;;;5.17;4.77;;;26.70;99.90;;;;;;5087657;28;20449;-82
2022/07/22 09:15:49;;;;;;;4.83;4.43;;;26.80;99.90;;;;;;5084217;28;20454;-80
2022/07/22 09:18:18;;;;;;;4.23;4.00;;;26.80;99.90;;;;;;5089848;28;20553;-80
2022/07/22 09:20:47;;;;;;;5.17;4.77;;;26.80;99.90;;;;;;5079433;28;20514;-79
2022/07/22 09:23:20;;;;;;;5.40;4.80;;;26.90;99.90;;;;;;5088948;28;20478;-80
2022/07/22 09:25:49;;;;;;;4.90;4.50;;;26.90;99.90;;;;;;5083586;28;20474;-81
2022/07/22 09:28:20;;;;;;;4.33;3.93;;;27.00;99.90;;;;;;5085341;28;20453;-79
2022/07/22 09:30:55;;;;;;;5.13;4.77;;;27.00;99.90;;;;;;5084320;28;20458;-82
2022/07/22 09:33:26;;;;;;;4.80;4.00;;;27.00;99.90;;;;;;5084656;28;20464;-81
2022/07/22 09:36:03;;;;;;;4.90;4.50;;;27.00;99.90;;;;;;5085927;28;20479;-82
2022/07/22 09:38:34;;;;;;;5.43;5.03;;;27.00;99.90;;;;;;5091103;28;20483;-79
2022/07/22 09:41:04;;;;;;;4.93;4.53;;;27.00;99.90;;;;;;5092206;28;20457;-81
2022/07/22 09:43:37;;;;;;;5.10;4.60;;;27.00;99.90;;;;;;5087858;28;20895;-80
2022/07/22 09:46:08;;;;;;;6.43;5.70;;;27.00;99.90;;;;;;5090096;28;20465;-82
2022/07/22 09:48:38;;;;;;;6.30;5.70;;;27.10;99.90;;;;;;5080566;28;20541;-80
2022/07/22 09:51:06;;;;;;;5.67;4.83;;;27.10;99.90;;;;;;5086011;28;20803;-81
2022/07/22 09:53:36;;;;;;;4.50;4.20;;;27.10;99.90;;;;;;5088175;28;21184;-79
2022/07/22 09:56:06;;;;;;;5.57;5.07;;;27.10;99.90;;;;;;5093298;28;20980;-82
2022/07/22 09:58:35;;;;;;;5.97;5.47;;;27.30;99.90;;;;;;5090050;28;21003;-81
2022/07/22 10:01:07;;;;;;;5.83;5.33;;;27.30;99.90;;;;;;5090601;28;20541;-80
2022/07/22 10:03:39;;;;;;;6.07;4.60;;;27.10;99.90;;;;;;5091455;28;20438;-81
2022/07/22 10:06:07;;;;;;;6.17;5.57;;;27.10;99.90;;;;;;5091938;28;20550;-80
2022/07/22 10:08:36;;;;;;;5.60;5.10;;;27.20;99.90;;;;;;5085851;28;20458;-83
2022/07/22 10:11:07;;;;;;;5.43;5.00;;;27.30;99.90;;;;;;5077518;28;20885;-78
2022/07/22 10:13:38;;;;;;;5.67;5.20;;;27.30;99.90;;;;;;5085220;28;20481;-83
2022/07/22 10:16:09;;;;;;;5.50;5.00;;;27.40;99.90;;;;;;5092302;28;20462;-81
2022/07/22 10:18:39;;;;;;;6.73;5.07;;;27.50;99.90;;;;;;5080766;28;20502;-80
2022/07/22 10:21:09;;;;;;;6.30;5.30;;;27.50;99.90;;;;;;5079634;28;20971;-79
2022/07/22 10:23:37;;;;;;;5.90;5.50;;;27.50;99.90;;;;;;5074943;28;20476;-81
2022/07/22 10:26:06;;;;;;;4.93;4.53;;;27.50;99.90;;;;;;5081830;28;20568;-79
2022/07/22 10:28:36;;;;;;;7.17;6.30;;;27.60;99.90;;;;;;5088272;28;20433;-79
2022/07/22 10:31:23;;;;;;;5.77;5.27;;;27.60;99.90;;;;;;5090164;28;20956;-79
2022/07/22 10:33:53;;;;;;;5.30;4.90;;;27.60;99.90;;;;;;5087334;28;20499;-81
2022/07/22 10:36:33;;;;;;;5.97;5.03;;;27.50;99.90;;;;;;5088313;28;20554;-81
2022/07/22 10:39:07;;;;;;;5.00;4.60;;;27.50;99.90;;;;;;5088111;28;20474;-81
2022/07/22 10:41:38;;;;;;;5.50;5.10;;;27.60;99.90;;;;;;5086738;28;20446;-81
2022/07/22 10:44:06;;;;;;;6.20;5.63;;;27.60;99.90;;;;;;5085742;28;20462;-83
2022/07/22 10:46:53;;;;;;;5.20;4.87;;;27.60;99.90;;;;;;5089132;28;20535;-80
2022/07/22 10:49:24;;;;;;;5.90;5.40;;;27.70;99.90;;;;;;5081697;28;20860;-79
2022/07/22 10:52:22;;;;;;;5.60;5.10;;;27.70;99.90;;;;;;5092847;28;21273;-80
2022/07/22 10:55:18;;;;;;;6.70;5.00;;;27.60;99.90;;;;;;5042373;28;20910;-80
2022/07/22 10:57:48;;;;;;;5.63;5.23;;;27.70;99.90;;;;;;5094728;28;20441;-80
2022/07/22 11:00:17;;;;;;;5.10;4.60;;;27.70;99.90;;;;;;5101918;28;20481;-80
2022/07/22 11:02:47;;;;;;;4.50;4.20;;;27.80;99.90;;;;;;5094391;28;20438;-81
2022/07/22 11:05:24;;;;;;;4.80;4.40;;;27.80;99.90;;;;;;5091865;28;21024;-82
2022/07/22 11:07:53;;;;;;;5.20;4.80;;;27.80;99.90;;;;;;5084224;28;20462;-82
2022/07/22 11:10:22;;;;;;;5.73;5.33;;;27.80;99.90;;;;;;5084845;28;20546;-80
2022/07/22 11:12:51;;;;;;;4.97;4.57;;;27.80;99.90;;;;;;5094371;28;20825;-81
2022/07/22 11:15:25;;;;;;;5.60;5.20;;;27.80;99.90;;;;;;5085419;28;20512;-79
2022/07/22 11:17:58;;;;;;;5.13;4.83;;;27.80;99.90;;;;;;5090755;28;20552;-80
2022/07/22 11:20:27;;;;;;;4.77;4.47;;;27.80;99.90;;;;;;5081708;28;20470;-80
2022/07/22 11:22:57;;;;;;;4.20;4.00;;;27.90;99.90;;;;;;5094313;28;20442;-84
2022/07/22 11:25:27;;;;;;;4.70;4.40;;;27.90;99.90;;;;;;5079628;28;20458;-81
2022/07/22 11:27:57;;;;;;;4.83;4.53;;;28.00;99.90;;;;;;5085449;28;21026;-81
2022/07/22 11:30:26;;;;;;;5.87;5.40;;;28.00;99.90;;;;;;5079189;28;20442;-82
2022/07/22 11:32:55;;;;;;;5.23;4.83;;;28.10;99.90;;;;;;5087160;28;20516;-84
2022/07/22 11:35:25;;;;;;;5.70;5.17;;;28.10;99.90;;;;;;5079978;28;20480;-80
2022/07/22 11:37:56;;;;;;;5.87;5.30;;;28.20;99.90;;;;;;5090044;28;20457;-80
2022/07/22 11:40:32;;;;;;;6.30;5.40;;;28.20;99.90;;;;;;5086934;28;20852;-80
2022/07/22 11:43:05;;;;;;;5.60;5.10;;;28.10;99.90;;;;;;5082172;28;20462;-80
2022/07/22 11:45:33;;;;;;;4.70;4.40;;;28.20;99.90;;;;;;5083383;28;21018;-80
2022/07/22 11:48:09;;;;;;;4.80;4.40;;;28.30;99.90;;;;;;5090983;28;20488;-80
2022/07/22 11:50:39;;;;;;;5.63;4.17;;;28.30;99.90;;;;;;5092100;28;20441;-84
2022/07/22 11:53:07;;;;;;;5.77;5.27;;;28.20;99.90;;;;;;5092517;28;20449;-81
2022/07/22 11:55:35;;;;;;;5.90;5.40;;;28.20;99.90;;;;;;5087014;28;21117;-80
2022/07/22 11:58:04;;;;;;;5.13;4.83;;;28.20;99.90;;;;;;5083898;28;20782;-81
2022/07/22 12:00:32;;;;;;;5.47;4.97;;;28.30;99.90;;;;;;5090098;28;20516;-80
2022/07/22 12:03:00;;;;;;;5.63;5.13;;;28.20;99.90;;;;;;5092507;28;20445;-81
2022/07/22 12:05:29;;;;;;;5.03;4.63;;;28.30;99.90;;;;;;5090839;28;21146;-79
2022/07/22 12:08:02;;;;;;;4.40;4.10;;;28.40;99.90;;;;;;5085711;28;20450;-78
2022/07/22 12:10:30;;;;;;;5.20;4.70;;;28.40;99.90;;;;;;5087079;28;21180;-81
2022/07/22 12:12:58;;;;;;;5.20;4.80;;;28.40;99.90;;;;;;5090393;28;20453;-79
2022/07/22 12:15:27;;;;;;;5.20;4.80;;;28.40;99.90;;;;;;5088994;28;20470;-80
2022/07/22 12:18:18;;;;;;;5.17;4.77;;;28.40;99.90;;;;;;5083499;28;20530;-84
2022/07/22 12:20:47;;;;;;;5.13;4.73;;;28.40;99.90;;;;;;5091306;28;20465;-85
2022/07/22 12:23:24;;;;;;;4.70;4.40;;;28.50;99.90;;;;;;5092896;28;20437;-85
2022/07/22 12:25:55;;;;;;;4.80;4.40;;;28.50;99.90;;;;;;5091450;28;20468;-85
2022/07/22 12:28:25;;;;;;;5.47;5.13;;;28.50;99.90;;;;;;5081154;28;20538;-84
2022/07/22 12:30:56;;;;;;;6.73;6.13;;;28.60;99.90;;;;;;5092781;28;20441;-85
2022/07/22 12:33:24;;;;;;;4.97;4.57;;;28.70;99.90;;;;;;5099450;28;20830;-85
2022/07/22 12:36:01;;;;;;;6.40;5.67;;;28.80;99.90;;;;;;5079971;28;20481;-85
2022/07/22 12:38:31;;;;;;;4.87;4.57;;;28.70;99.90;;;;;;5087615;28;20941;-85
2022/07/22 12:41:25;;;;;;;4.70;4.30;;;28.80;99.90;;;;;;5076090;28;20513;-84
2022/07/22 12:43:53;;;;;;;5.83;5.37;;;28.90;99.90;;;;;;5090623;28;20485;-86
2022/07/22 12:46:22;;;;;;;5.40;4.90;;;28.90;99.90;;;;;;5089851;28;20461;-86
2022/07/22 12:48:59;;;;;;;5.30;4.90;;;28.90;99.90;;;;;;5077354;28;20445;-84
2022/07/22 12:51:29;;;;;;;5.57;4.93;;;29.00;99.90;;;;;;5089737;28;20438;-85
2022/07/22 12:53:59;;;;;;;5.70;5.30;;;29.00;99.90;;;;;;5089336;28;20448;-85
2022/07/22 12:56:28;;;;;;;5.03;4.73;;;29.00;99.90;;;;;;5090912;28;20473;-85
2022/07/22 12:59:02;;;;;;;4.70;4.30;;;29.00;99.90;;;;;;5092242;28;20535;-85